createdAt,value
2022-09-07T00:00:57.811Z,4.03
2022-09-07T00:03:26.471Z,3.80
2022-09-07T00:05:53.317Z,4.72
2022-09-07T00:08:24.553Z,3.25
2022-09-07T00:10:52.627Z,2.15
2022-09-07T00:13:19.367Z,2.42
2022-09-07T00:15:46.099Z,2.75
2022-09-07T00:18:12.951Z,2.80
2022-09-07T00:20:41.014Z,2.97
2022-09-07T00:23:07.853Z,2.05
2022-09-07T00:25:36.278Z,2.25
2022-09-07T00:28:03.167Z,2.30
2022-09-07T00:30:29.843Z,2.25
2022-09-07T00:32:56.755Z,4.40
2022-09-07T00:35:23.558Z,3.47
2022-09-07T00:37:51.693Z,4.10
2022-09-07T00:40:18.584Z,2.53
2022-09-07T00:42:45.190Z,3.03
2022-09-07T00:45:15.810Z,3.35
2022-09-07T00:47:51.675Z,2.92
2022-09-07T00:50:22.281Z,3.97
2022-09-07T00:52:54.566Z,2.45
2022-09-07T00:55:21.384Z,3.22
2022-09-07T00:57:51.016Z,4.93
2022-09-07T01:00:18.185Z,3.75
2022-09-07T01:02:46.364Z,4.47
2022-09-07T01:05:19.438Z,3.13
2022-09-07T01:07:48.607Z,7.18
2022-09-07T01:10:19.464Z,2.78
2022-09-07T01:12:46.070Z,3.47
2022-09-07T01:15:12.809Z,3.65
2022-09-07T01:17:53.050Z,2.63
2022-09-07T01:20:37.764Z,3.03
2022-09-07T01:23:50.591Z,3.88
2022-09-07T01:26:43.665Z,4.13
2022-09-07T01:29:19.279Z,3.30
2022-09-07T01:31:56.913Z,5.32
2022-09-07T01:34:26.198Z,3.80
2022-09-07T01:37:02.154Z,5.30
2022-09-07T01:39:36.234Z,4.55
2022-09-07T01:42:08.634Z,3.17
2022-09-07T01:44:42.212Z,3.30
2022-09-07T01:47:15.338Z,4.22
2022-09-07T01:49:48.062Z,4.60
2022-09-07T01:52:22.578Z,4.20
2022-09-07T01:54:56.647Z,3.42
2022-09-07T01:57:29.114Z,4.78
2022-09-07T02:00:04.051Z,3.53
2022-09-07T02:02:42.746Z,5.95
2022-09-07T02:05:15.506Z,3.83
2022-09-07T02:07:46.442Z,4.50
2022-09-07T02:10:17.283Z,3.72
2022-09-07T02:12:49.294Z,3.22
2022-09-07T02:15:22.354Z,2.90
2022-09-07T02:17:52.547Z,7.43
2022-09-07T02:20:21.914Z,5.22
2022-09-07T02:22:54.338Z,3.38
2022-09-07T02:25:23.998Z,3.90
2022-09-07T02:27:54.625Z,4.00
2022-09-07T02:30:23.146Z,3.47
2022-09-07T02:32:50.061Z,3.50
2022-09-07T02:35:17.210Z,3.03
2022-09-07T02:37:44.894Z,3.17
2022-09-07T02:40:12.711Z,4.13
2022-09-07T02:42:39.879Z,2.90
2022-09-07T02:45:10.728Z,3.72
2022-09-07T02:47:52.139Z,3.13
2022-09-07T02:50:36.964Z,5.55
2022-09-07T02:53:33.742Z,4.18
2022-09-07T02:56:11.019Z,3.47
2022-09-07T02:58:49.337Z,4.07
2022-09-07T03:01:25.969Z,3.70
2022-09-07T03:04:05.935Z,3.67
2022-09-07T03:06:38.330Z,4.32
2022-09-07T03:09:10.147Z,4.88
2022-09-07T03:11:37.218Z,4.53
2022-09-07T03:14:15.248Z,4.75
2022-09-07T03:16:42.593Z,3.97
2022-09-07T03:19:10.894Z,4.43
2022-09-07T03:21:37.662Z,4.28
2022-09-07T03:24:05.436Z,4.68
2022-09-07T03:26:32.322Z,6.68
2022-09-07T03:28:59.016Z,5.47
2022-09-07T03:31:26.385Z,4.50
2022-09-07T03:33:54.847Z,4.97
2022-09-07T03:36:23.151Z,4.75
2022-09-07T03:38:49.816Z,8.07
2022-09-07T03:41:16.541Z,4.70
2022-09-07T03:43:43.276Z,5.13
2022-09-07T03:46:10.122Z,4.03
2022-09-07T03:48:38.000Z,4.00
2022-09-07T03:51:06.581Z,5.15
2022-09-07T03:53:37.149Z,4.88
2022-09-07T03:56:06.118Z,4.22
2022-09-07T03:58:33.883Z,4.63
2022-09-07T04:01:04.746Z,4.20
2022-09-07T04:03:31.508Z,4.05
2022-09-07T04:05:58.301Z,3.97
2022-09-07T04:08:25.463Z,4.32
2022-09-07T04:10:56.160Z,6.13
2022-09-07T04:13:23.341Z,3.70
2022-09-07T04:15:53.373Z,3.75
2022-09-07T04:18:20.978Z,3.83
2022-09-07T04:20:48.202Z,3.47
2022-09-07T04:23:14.920Z,3.58
2022-09-07T04:25:47.174Z,3.63
2022-09-07T04:28:17.698Z,3.45
2022-09-07T04:30:44.641Z,5.20
2022-09-07T04:33:12.585Z,3.63
2022-09-07T04:35:40.808Z,3.22
2022-09-07T04:38:08.558Z,3.72
2022-09-07T04:40:35.270Z,5.63
2022-09-07T04:43:01.932Z,3.50
2022-09-07T04:45:29.928Z,9.05
2022-09-07T04:47:56.813Z,5.32
2022-09-07T04:50:24.509Z,5.38
2022-09-07T04:52:52.920Z,4.03
2022-09-07T04:55:19.699Z,5.40
2022-09-07T04:57:49.022Z,4.60
2022-09-07T05:00:16.770Z,7.30
2022-09-07T05:02:44.863Z,4.45
2022-09-07T05:05:11.609Z,4.22
2022-09-07T05:07:38.166Z,5.93
2022-09-07T05:10:05.471Z,5.93
2022-09-07T05:12:34.539Z,4.05
2022-09-07T05:15:02.542Z,7.65
2022-09-07T05:17:29.128Z,4.10
2022-09-07T05:19:57.213Z,6.13
2022-09-07T05:22:23.875Z,4.90
2022-09-07T05:24:50.701Z,5.38
2022-09-07T05:27:18.286Z,4.20
2022-09-07T05:32:27.075Z,4.53
2022-09-07T05:34:53.698Z,3.72
2022-09-07T05:37:21.661Z,5.85
2022-09-07T05:39:48.642Z,5.68
2022-09-07T05:42:15.371Z,4.15
2022-09-07T05:47:10.712Z,4.45
2022-09-07T05:49:37.321Z,3.95
2022-09-07T05:52:04.031Z,4.72
2022-09-07T05:54:32.065Z,4.30
2022-09-07T05:56:58.989Z,4.13
2022-09-07T05:59:25.531Z,4.43
2022-09-07T06:01:52.626Z,4.68
2022-09-07T06:04:19.431Z,7.40
2022-09-07T06:06:59.358Z,16.17
2022-09-07T06:09:34.400Z,5.47
2022-09-07T06:12:03.434Z,7.20
2022-09-07T06:14:30.172Z,7.40
2022-09-07T06:16:58.007Z,5.95
2022-09-07T06:19:24.696Z,6.32
2022-09-07T06:21:52.512Z,7.40
2022-09-07T06:24:19.302Z,7.93
2022-09-07T06:26:47.305Z,7.63
2022-09-07T06:29:14.003Z,8.82
2022-09-07T06:34:31.793Z,10.20
2022-09-07T06:36:59.531Z,10.82
2022-09-07T06:39:26.289Z,9.00
2022-09-07T06:44:28.723Z,10.48
2022-09-07T06:47:02.820Z,14.82
2022-09-07T06:49:30.104Z,15.10
2022-09-07T06:51:56.876Z,14.52
2022-09-07T06:57:11.611Z,17.52
2022-09-07T06:59:38.422Z,18.75
2022-09-07T07:02:05.643Z,18.60
2022-09-07T07:04:34.181Z,21.73
2022-09-07T07:07:04.965Z,19.88
2022-09-07T07:09:32.223Z,20.90
2022-09-07T07:11:58.898Z,19.65
2022-09-07T07:14:28.125Z,21.02
2022-09-07T07:16:55.677Z,22.77
2022-09-07T07:19:22.414Z,20.85
2022-09-07T07:22:10.687Z,20.27
2022-09-07T07:24:35.963Z,23.95
2022-09-07T07:27:02.551Z,20.27
2022-09-07T07:29:30.683Z,20.25
2022-09-07T07:31:57.434Z,20.45
2022-09-07T07:34:24.430Z,19.67
2022-09-07T07:37:09.917Z,20.23
2022-09-07T07:42:26.743Z,21.65
2022-09-07T07:47:41.571Z,22.45
2022-09-07T07:55:43.971Z,20.73
2022-09-07T07:58:11.096Z,18.90
2022-09-07T08:00:53.708Z,19.60
2022-09-07T08:03:21.335Z,19.30
2022-09-07T08:05:48.129Z,19.45
2022-09-07T08:08:14.838Z,18.38
2022-09-07T08:10:41.609Z,19.23
2022-09-07T08:13:08.460Z,20.05
2022-09-07T08:15:39.200Z,21.17
2022-09-07T08:18:06.042Z,21.10
2022-09-07T08:20:32.597Z,20.02
2022-09-07T08:22:59.340Z,18.77
2022-09-07T08:25:27.491Z,19.38
2022-09-07T08:27:54.206Z,18.95
2022-09-07T08:30:20.853Z,21.23
2022-09-07T08:32:48.835Z,19.48
2022-09-07T08:35:15.584Z,17.60
2022-09-07T08:37:42.678Z,16.48
2022-09-07T08:40:15.022Z,15.45
2022-09-07T08:42:57.872Z,15.10
2022-09-07T08:45:30.957Z,15.18
2022-09-07T08:47:59.071Z,14.75
2022-09-07T08:50:31.022Z,14.35
2022-09-07T08:53:02.692Z,15.20
2022-09-07T08:55:33.225Z,14.73
2022-09-07T08:58:22.195Z,13.68
2022-09-07T09:06:47.722Z,12.07
2022-09-07T09:09:22.176Z,9.38
2022-09-07T09:11:58.748Z,10.75
2022-09-07T09:17:00.178Z,9.00
2022-09-07T09:19:54.957Z,9.48
2022-09-07T09:22:23.533Z,8.23
2022-09-07T09:24:55.426Z,9.93
2022-09-07T09:27:22.071Z,9.60
2022-09-07T09:29:48.675Z,8.68
2022-09-07T09:32:35.937Z,9.18
2022-09-07T09:35:13.154Z,9.52
2022-09-07T09:37:40.979Z,9.40
2022-09-07T09:40:19.346Z,9.07
2022-09-07T09:42:47.253Z,9.20
2022-09-07T09:45:17.758Z,10.77
2022-09-07T09:47:49.497Z,9.68
2022-09-07T09:53:24.415Z,8.93
2022-09-07T09:55:52.389Z,9.18
2022-09-07T10:01:25.371Z,7.65
2022-09-07T10:06:23.943Z,8.00
2022-09-07T10:08:55.948Z,9.48
2022-09-07T10:14:29.868Z,6.10
2022-09-07T10:16:57.527Z,6.63
2022-09-07T10:19:31.573Z,5.20
2022-09-07T10:22:01.217Z,6.70
2022-09-07T10:24:34.478Z,4.40
2022-09-07T10:27:01.178Z,3.85
2022-09-07T10:29:30.294Z,8.18
2022-09-07T10:32:23.215Z,3.90
2022-09-07T10:35:06.362Z,3.95
2022-09-07T10:37:47.547Z,4.13
2022-09-07T10:40:23.904Z,7.45
2022-09-07T10:46:06.305Z,5.15
2022-09-07T10:51:13.782Z,5.18
2022-09-07T10:56:57.724Z,5.22
2022-09-07T11:00:08.309Z,4.07
2022-09-07T11:05:53.859Z,3.97
2022-09-07T11:08:31.967Z,2.97
2022-09-07T11:11:10.616Z,2.80
2022-09-07T11:14:09.317Z,3.70
2022-09-07T11:16:55.206Z,4.50
2022-09-07T11:19:35.645Z,2.65
2022-09-07T11:22:15.151Z,1.85
2022-09-07T11:25:29.111Z,2.10
2022-09-07T11:27:42.408Z,3.25
2022-09-07T11:30:17.284Z,2.53
2022-09-07T11:32:51.249Z,2.33
2022-09-07T11:35:29.052Z,2.67
2022-09-07T11:38:02.729Z,3.08
2022-09-07T11:40:34.097Z,2.20
2022-09-07T11:43:18.077Z,2.40
2022-09-07T11:45:49.540Z,2.42
2022-09-07T11:51:11.243Z,3.30
2022-09-07T11:53:45.018Z,1.40
2022-09-07T11:56:18.467Z,2.22
2022-09-07T11:59:18.436Z,2.95
2022-09-07T12:01:59.351Z,3.00
2022-09-07T12:04:56.858Z,4.15
2022-09-07T12:07:46.774Z,2.22
2022-09-07T12:10:36.197Z,3.35
2022-09-07T12:13:26.822Z,1.77
2022-09-07T12:16:06.863Z,2.30
2022-09-07T12:18:53.251Z,2.65
2022-09-07T12:23:06.293Z,3.10
2022-09-07T12:25:35.109Z,4.60
2022-09-07T12:28:02.438Z,3.65
2022-09-07T12:30:58.813Z,4.15
2022-09-07T12:33:34.465Z,4.22
2022-09-07T12:36:02.595Z,2.83
2022-09-07T12:39:14.111Z,2.75
2022-09-07T12:41:48.476Z,3.63
2022-09-07T12:44:20.483Z,2.90
2022-09-07T12:46:51.919Z,1.75
2022-09-07T12:49:48.411Z,2.67
2022-09-07T12:52:48.109Z,2.30
2022-09-07T12:58:56.088Z,1.75
2022-09-07T13:01:57.258Z,3.65
2022-09-07T13:04:51.562Z,4.97
2022-09-07T13:08:08.801Z,2.88
2022-09-07T13:10:37.927Z,1.60
2022-09-07T13:14:02.654Z,3.13
2022-09-07T13:17:16.147Z,2.72
2022-09-07T13:19:50.763Z,1.48
2022-09-07T13:22:57.586Z,1.48
2022-09-07T13:25:48.304Z,2.65
2022-09-07T13:28:47.864Z,3.50
2022-09-07T13:34:46.108Z,1.67
2022-09-07T13:37:18.813Z,2.28
2022-09-07T13:39:54.609Z,3.17
2022-09-07T13:42:29.013Z,1.67
2022-09-07T13:44:58.833Z,0.98
2022-09-07T13:47:47.755Z,2.35
2022-09-07T13:50:32.388Z,2.15
2022-09-07T13:53:44.096Z,4.97
2022-09-07T13:56:22.072Z,2.30
2022-09-07T13:58:51.993Z,2.53
2022-09-07T14:01:22.159Z,3.47
2022-09-07T14:03:52.178Z,1.40
2022-09-07T14:06:34.875Z,2.17
2022-09-07T14:09:13.441Z,1.23
2022-09-07T14:11:42.780Z,3.10
2022-09-07T14:14:24.019Z,1.63
2022-09-07T14:17:03.509Z,1.67
2022-09-07T14:19:38.626Z,1.88
2022-09-07T14:22:20.658Z,1.35
2022-09-07T14:24:55.115Z,1.42
2022-09-07T14:27:31.690Z,1.20
2022-09-07T14:30:22.288Z,7.10
2022-09-07T14:32:52.757Z,1.63
2022-09-07T14:35:26.213Z,2.05
2022-09-07T14:38:06.117Z,2.47
2022-09-07T14:40:36.371Z,2.30
2022-09-07T14:43:03.382Z,1.65
2022-09-07T14:45:32.740Z,2.85
2022-09-07T14:48:00.516Z,1.50
2022-09-07T14:50:36.330Z,2.50
2022-09-07T14:56:09.411Z,3.10
2022-09-07T14:58:43.427Z,3.38
2022-09-07T15:04:17.020Z,1.23
2022-09-07T15:09:36.058Z,3.15
2022-09-07T15:12:14.517Z,1.80
2022-09-07T15:14:52.599Z,5.73
2022-09-07T15:17:46.669Z,1.60
2022-09-07T15:20:35.130Z,1.83
2022-09-07T15:23:03.974Z,1.35
2022-09-07T15:25:32.778Z,3.63
2022-09-07T15:28:05.918Z,0.82
2022-09-07T15:30:35.755Z,1.60
2022-09-07T15:33:02.494Z,1.60
2022-09-07T15:35:29.473Z,1.08
2022-09-07T15:38:05.545Z,2.88
2022-09-07T15:41:03.786Z,1.58
2022-09-07T15:43:30.156Z,1.42
2022-09-07T15:46:03.714Z,1.60
2022-09-07T15:48:31.523Z,4.75
2022-09-07T15:51:04.737Z,2.63
2022-09-07T15:56:23.730Z,1.48
2022-09-07T15:58:55.388Z,1.35
2022-09-07T16:04:14.006Z,1.85
2022-09-07T16:09:11.733Z,2.95
2022-09-07T16:11:40.241Z,1.13
2022-09-07T16:14:07.524Z,2.13
2022-09-07T16:19:22.811Z,2.10
2022-09-07T16:22:06.843Z,2.53
2022-09-07T16:24:40.534Z,2.03
2022-09-07T16:27:12.787Z,2.63
2022-09-07T16:29:44.092Z,2.53
2022-09-07T16:35:25.539Z,6.30
2022-09-07T16:40:52.339Z,1.77
2022-09-07T16:43:25.506Z,1.75
2022-09-07T16:46:04.890Z,6.68
2022-09-07T16:48:37.029Z,1.55
2022-09-07T16:53:39.753Z,1.10
2022-09-07T16:56:11.748Z,3.17
2022-09-07T16:59:01.397Z,2.35
2022-09-07T17:01:30.936Z,1.90
2022-09-07T17:04:02.633Z,1.80
2022-09-07T17:06:35.627Z,1.42
2022-09-07T17:09:05.025Z,1.00
2022-09-07T17:11:46.954Z,1.95
2022-09-07T17:14:16.000Z,3.63
2022-09-07T17:16:45.533Z,3.22
2022-09-07T17:19:32.223Z,2.65
2022-09-07T17:22:07.195Z,3.70
2022-09-07T17:24:39.186Z,4.35
2022-09-07T17:27:06.468Z,4.15
2022-09-07T17:29:38.479Z,3.58
2022-09-07T17:35:02.547Z,2.78
2022-09-07T17:37:30.041Z,3.70
2022-09-07T17:39:57.525Z,4.45
2022-09-07T17:43:38.804Z,4.47
2022-09-07T17:45:23.977Z,3.45
2022-09-07T17:47:53.482Z,3.10
2022-09-07T17:50:20.793Z,2.00
2022-09-07T17:52:52.786Z,2.42
2022-09-07T17:55:26.043Z,3.30
2022-09-07T17:58:04.192Z,2.92
2022-09-07T18:00:39.863Z,2.22
2022-09-07T18:03:15.794Z,2.88
2022-09-07T18:05:54.167Z,2.22
2022-09-07T18:08:35.570Z,1.58
2022-09-07T18:14:09.116Z,3.08
2022-09-07T18:17:02.146Z,2.28
2022-09-07T18:19:32.705Z,1.55
2022-09-07T18:22:03.066Z,2.58
2022-09-07T18:24:39.022Z,1.23
2022-09-07T18:27:10.030Z,2.60
2022-09-07T18:29:43.706Z,2.03
2022-09-07T18:32:12.278Z,2.10
2022-09-07T18:34:49.703Z,5.35
2022-09-07T18:37:19.231Z,1.88
2022-09-07T18:39:48.976Z,1.85
2022-09-07T18:42:16.125Z,2.88
2022-09-07T18:47:34.220Z,2.25
2022-09-07T18:50:04.029Z,2.97
2022-09-07T18:55:21.252Z,2.47
2022-09-07T18:57:52.583Z,2.75
2022-09-07T19:00:19.862Z,2.83
2022-09-07T19:02:51.234Z,4.18
2022-09-07T19:08:52.154Z,2.97
2022-09-07T19:39:46.049Z,3.55
2022-09-07T19:42:12.702Z,1.00
2022-09-07T19:44:39.226Z,4.03
2022-09-07T19:47:06.507Z,2.15
2022-09-07T19:49:33.147Z,3.53
2022-09-07T19:51:59.778Z,3.75
2022-09-07T19:54:26.299Z,2.88
2022-09-07T19:56:54.218Z,3.28
2022-09-07T19:59:20.868Z,3.03
2022-09-07T20:01:47.629Z,1.95
2022-09-07T20:04:19.845Z,3.22
2022-09-07T20:06:47.684Z,2.80
2022-09-07T20:09:14.448Z,2.58
2022-09-07T20:11:46.063Z,3.58
2022-09-07T20:14:15.071Z,4.45
2022-09-07T20:16:41.971Z,3.28
2022-09-07T20:19:11.126Z,2.28
2022-09-07T20:21:37.864Z,2.95
2022-09-07T20:24:04.857Z,2.20
2022-09-07T20:26:31.606Z,2.35
2022-09-07T20:29:23.439Z,2.08
2022-09-07T20:31:53.890Z,2.63
2022-09-07T20:34:20.819Z,2.50
2022-09-07T20:36:48.983Z,3.15
2022-09-07T20:39:16.648Z,3.45
2022-09-07T20:41:43.199Z,3.63
2022-09-07T20:44:10.275Z,3.28
2022-09-07T20:46:55.925Z,3.28
2022-09-07T21:04:32.630Z,4.95
2022-09-07T21:15:49.194Z,7.22
2022-09-07T21:34:24.797Z,3.35
2022-09-07T21:36:52.646Z,3.17
2022-09-07T21:39:19.664Z,2.67
2022-09-07T21:41:47.776Z,3.28
2022-09-07T21:44:18.552Z,2.58
2022-09-07T21:46:47.262Z,3.03
2022-09-07T21:49:23.354Z,2.15
2022-09-07T21:57:28.268Z,2.67
2022-09-07T21:59:56.216Z,2.40
2022-09-07T22:02:26.286Z,3.22
2022-09-07T22:04:58.385Z,1.75
2022-09-07T22:07:29.335Z,3.30
2022-09-07T22:09:57.275Z,2.58
2022-09-07T22:12:34.012Z,2.35
2022-09-07T22:15:02.172Z,3.00
2022-09-07T22:17:32.087Z,2.35
2022-09-07T22:19:59.214Z,2.72
2022-09-07T22:22:25.827Z,2.55
2022-09-07T22:24:52.688Z,3.40
2022-09-07T22:27:19.455Z,1.77
2022-09-07T22:29:47.544Z,2.33
2022-09-07T22:32:17.346Z,2.85
2022-09-07T22:34:46.814Z,2.90
2022-09-07T22:40:38.857Z,2.40
2022-09-07T22:43:17.209Z,2.45
2022-09-07T22:53:07.908Z,3.67
2022-09-07T22:55:54.222Z,2.55
2022-09-07T23:12:26.922Z,2.85
2022-09-07T23:22:21.569Z,2.40
2022-09-07T23:46:38.920Z,3.05
2022-09-07T23:49:05.538Z,2.95
2022-09-07T23:51:32.440Z,3.15
2022-09-07T23:53:59.130Z,4.82
2022-09-07T23:56:25.741Z,3.30
2022-09-07T23:58:54.591Z,6.00
